createdAt,value
2023-05-07T00:00:16.644Z,19.82
2023-05-07T00:02:45.810Z,19.61
2023-05-07T00:05:13.985Z,19.73
2023-05-07T00:07:42.010Z,19.59
2023-05-07T00:10:11.892Z,19.56
2023-05-07T00:12:41.739Z,19.67
2023-05-07T00:15:10.227Z,19.54
2023-05-07T00:17:38.110Z,19.42
2023-05-07T00:20:07.784Z,19.28
2023-05-07T00:22:35.952Z,19.38
2023-05-07T00:25:03.587Z,19.41
2023-05-07T00:27:31.918Z,19.43
2023-05-07T00:29:59.385Z,19.47
2023-05-07T00:32:26.937Z,19.48
2023-05-07T00:34:54.440Z,19.42
2023-05-07T04:34:27.214Z,15.76
2023-05-07T04:46:47.606Z,15.92
2023-05-07T04:59:15.940Z,16.14
2023-05-07T05:01:43.421Z,16.24
2023-05-07T05:11:49.774Z,16.21
2023-05-07T05:14:17.158Z,16.66
2023-05-07T05:23:33.165Z,16.53
2023-05-07T05:26:00.849Z,16.47
2023-05-07T05:37:12.781Z,16.72
2023-05-07T05:39:40.351Z,16.96
2023-05-07T05:49:03.949Z,16.76
2023-05-07T05:51:31.774Z,16.90
2023-05-07T05:59:12.339Z,17.01
2023-05-07T06:01:40.429Z,17.14
2023-05-07T06:04:07.966Z,17.10
2023-05-07T06:06:35.459Z,17.03
2023-05-07T06:09:02.863Z,17.09
2023-05-07T06:11:30.286Z,17.22
2023-05-07T06:13:57.740Z,17.63
2023-05-07T06:16:26.532Z,17.71
2023-05-07T06:18:53.950Z,17.65
2023-05-07T06:21:21.409Z,17.64
2023-05-07T06:23:48.910Z,17.91
2023-05-07T06:26:16.372Z,17.72
2023-05-07T06:28:43.768Z,17.89
2023-05-07T06:31:23.732Z,17.96
2023-05-07T06:33:51.419Z,18.23
2023-05-07T06:36:18.826Z,18.16
2023-05-07T06:38:46.351Z,18.41
2023-05-07T06:41:13.966Z,18.39
2023-05-07T06:43:41.345Z,18.39
2023-05-07T06:46:09.002Z,18.47
2023-05-07T06:48:36.404Z,18.66
2023-05-07T06:51:03.894Z,18.57
2023-05-07T06:53:31.819Z,18.73
2023-05-07T06:55:59.236Z,18.94
2023-05-07T06:58:26.688Z,19.00
2023-05-07T07:00:54.094Z,18.95
2023-05-07T07:03:21.940Z,19.08
2023-05-07T07:05:56.204Z,19.11
2023-05-07T07:08:24.211Z,19.27
2023-05-07T07:10:51.687Z,19.30
2023-05-07T07:13:19.219Z,19.52
2023-05-07T07:15:46.687Z,19.30
2023-05-07T07:18:14.154Z,19.90
2023-05-07T07:20:41.584Z,19.70
2023-05-07T07:23:08.960Z,19.68
2023-05-07T07:25:36.371Z,19.80
2023-05-07T07:28:03.917Z,19.96
2023-05-07T07:30:31.417Z,20.13
2023-05-07T07:33:03.564Z,20.02
2023-05-07T07:35:31.776Z,20.07
2023-05-07T07:37:59.702Z,20.15
2023-05-07T07:40:27.341Z,20.15
2023-05-07T07:42:55.512Z,20.30
2023-05-07T07:45:23.131Z,20.33
2023-05-07T07:47:50.656Z,20.38
2023-05-07T07:50:28.645Z,20.69
2023-05-07T07:53:03.601Z,20.62
2023-05-07T07:55:32.220Z,20.67
2023-05-07T07:57:59.692Z,20.58
2023-05-07T08:00:27.072Z,20.77
2023-05-07T08:02:54.634Z,20.82
2023-05-07T08:05:22.284Z,20.69
2023-05-07T08:07:53.158Z,20.74
2023-05-07T08:10:24.084Z,20.91
2023-05-07T08:12:52.182Z,20.91
2023-05-07T08:15:19.814Z,21.13
2023-05-07T08:17:47.340Z,21.14
2023-05-07T08:20:15.266Z,21.33
2023-05-07T08:22:42.892Z,21.15
2023-05-07T08:25:11.017Z,21.32
2023-05-07T08:27:38.409Z,21.42
2023-05-07T08:30:07.576Z,21.47
2023-05-07T08:32:35.021Z,21.68
2023-05-07T08:35:02.647Z,21.52
2023-05-07T08:37:30.068Z,21.61
2023-05-07T08:39:57.493Z,21.67
2023-05-07T08:42:28.262Z,21.63
2023-05-07T08:45:00.798Z,21.52
2023-05-07T08:47:46.579Z,21.55
2023-05-07T08:50:14.560Z,21.58
2023-05-07T08:52:42.711Z,21.70
2023-05-07T08:55:11.363Z,21.79
2023-05-07T08:57:40.347Z,21.59
2023-05-07T09:00:09.322Z,21.58
2023-05-07T09:02:38.094Z,21.74
2023-05-07T09:05:06.843Z,21.69
2023-05-07T09:07:35.215Z,21.86
2023-05-07T09:10:07.755Z,22.05
2023-05-07T09:12:36.563Z,22.14
2023-05-07T09:15:04.805Z,22.17
2023-05-07T09:17:33.487Z,22.25
2023-05-07T09:20:10.088Z,22.15
2023-05-07T09:22:39.607Z,22.22
2023-05-07T09:25:10.540Z,22.49
2023-05-07T09:27:38.519Z,22.19
2023-05-07T09:30:08.347Z,22.31
2023-05-07T09:32:39.316Z,22.50
2023-05-07T09:35:15.399Z,22.59
2023-05-07T09:37:42.954Z,22.23
2023-05-07T09:40:32.955Z,22.27
2023-05-07T09:43:15.224Z,22.31
2023-05-07T09:45:43.990Z,22.37
2023-05-07T09:48:13.225Z,22.27
2023-05-07T09:50:52.849Z,22.22
2023-05-07T09:53:21.131Z,22.37
2023-05-07T09:55:49.238Z,22.15
2023-05-07T09:58:18.343Z,22.51
2023-05-07T10:00:46.695Z,22.41
2023-05-07T10:03:15.463Z,22.52
2023-05-07T10:05:47.306Z,22.59
2023-05-07T10:08:17.967Z,22.60
2023-05-07T10:10:46.316Z,22.55
2023-05-07T10:13:13.914Z,22.41
2023-05-07T10:15:41.947Z,22.52
2023-05-07T10:18:10.750Z,22.59
2023-05-07T10:20:39.909Z,22.76
2023-05-07T10:23:09.314Z,22.90
2023-05-07T10:25:36.927Z,22.71
2023-05-07T10:28:11.269Z,22.87
2023-05-07T10:31:38.766Z,22.66
2023-05-07T10:34:19.943Z,23.09
2023-05-07T10:36:48.071Z,23.11
2023-05-07T10:39:15.759Z,23.35
2023-05-07T10:41:43.279Z,23.18
2023-05-07T10:44:10.898Z,23.01
2023-05-07T10:46:38.629Z,23.20
2023-05-07T10:49:07.406Z,22.88
2023-05-07T10:51:36.514Z,22.01
2023-05-07T10:54:12.631Z,22.24
2023-05-07T10:56:44.633Z,22.60
2023-05-07T10:59:33.162Z,22.95
2023-05-07T11:02:08.881Z,23.19
2023-05-07T11:04:36.773Z,22.85
2023-05-07T11:07:10.327Z,22.87
2023-05-07T11:09:53.054Z,22.85
2023-05-07T11:12:43.785Z,21.80
2023-05-07T11:15:16.834Z,22.20
2023-05-07T11:18:00.649Z,22.57
2023-05-07T11:20:57.488Z,22.32
2023-05-07T11:23:36.733Z,22.56
2023-05-07T11:26:11.156Z,22.28
2023-05-07T11:28:44.384Z,21.89
2023-05-07T11:31:12.777Z,21.35
2023-05-07T11:33:40.576Z,21.73
2023-05-07T11:36:10.405Z,21.34
2023-05-07T11:38:39.893Z,21.21
2023-05-07T11:41:08.809Z,21.52
2023-05-07T11:43:37.153Z,21.64
2023-05-07T11:46:13.527Z,21.56
2023-05-07T11:48:42.627Z,21.77
2023-05-07T11:51:10.323Z,21.19
2023-05-07T11:53:42.906Z,20.98
2023-05-07T11:56:14.196Z,20.70
2023-05-07T11:58:44.278Z,20.84
2023-05-07T12:01:14.668Z,21.08
2023-05-07T12:03:44.350Z,20.76
2023-05-07T12:06:14.545Z,20.26
2023-05-07T12:08:46.485Z,20.17
2023-05-07T12:11:27.126Z,20.49
2023-05-07T12:13:59.401Z,20.20
2023-05-07T12:16:28.760Z,20.42
2023-05-07T12:18:56.620Z,20.74
2023-05-07T12:21:25.413Z,20.08
2023-05-07T12:23:52.963Z,19.84
2023-05-07T12:26:22.537Z,20.00
2023-05-07T12:28:50.039Z,20.24
2023-05-07T12:31:17.666Z,20.10
2023-05-07T12:33:45.143Z,19.86
2023-05-07T12:36:14.950Z,19.95
2023-05-07T12:38:42.778Z,20.20
2023-05-07T12:41:13.670Z,20.36
2023-05-07T12:43:44.614Z,20.25
2023-05-07T12:46:14.769Z,20.46
2023-05-07T12:48:47.369Z,20.43
2023-05-07T12:51:16.237Z,20.24
2023-05-07T12:53:44.462Z,20.46
2023-05-07T12:56:12.248Z,20.49
2023-05-07T12:58:39.647Z,20.59
2023-05-07T13:01:11.186Z,20.74
2023-05-07T13:03:39.968Z,20.77
2023-05-07T13:06:13.280Z,20.90
2023-05-07T13:08:46.387Z,20.86
2023-05-07T13:11:14.720Z,21.16
2023-05-07T13:13:42.975Z,21.94
2023-05-07T13:16:12.963Z,22.49
2023-05-07T13:18:42.121Z,22.79
2023-05-07T13:21:09.872Z,23.04
2023-05-07T13:23:39.685Z,23.71
2023-05-07T13:26:24.994Z,24.11
2023-05-07T13:28:55.636Z,23.62
2023-05-07T13:31:23.250Z,24.22
2023-05-07T13:33:50.692Z,24.38
2023-05-07T13:36:18.188Z,24.77
2023-05-07T13:38:48.185Z,24.58
2023-05-07T13:41:15.946Z,24.97
2023-05-07T13:43:43.474Z,25.13
2023-05-07T13:46:10.923Z,25.14
2023-05-07T13:48:38.450Z,24.79
2023-05-07T13:51:06.098Z,24.49
2023-05-07T13:53:33.549Z,24.46
2023-05-07T13:56:01.048Z,24.69
2023-05-07T13:58:28.487Z,24.53
2023-05-07T14:00:56.130Z,24.12
2023-05-07T14:03:23.665Z,24.42
2023-05-07T14:05:51.104Z,24.71
2023-05-07T14:08:20.968Z,24.94
2023-05-07T14:10:48.509Z,25.02
2023-05-07T14:13:16.226Z,25.48
2023-05-07T14:15:47.449Z,26.27
2023-05-07T14:18:15.126Z,25.87
2023-05-07T14:20:44.470Z,25.08
2023-05-07T14:23:11.927Z,25.73
2023-05-07T14:25:39.416Z,25.78
2023-05-07T14:28:08.788Z,26.14
2023-05-07T14:30:36.665Z,26.07
2023-05-07T14:33:04.230Z,26.02
2023-05-07T14:35:31.774Z,26.48
2023-05-07T14:37:59.198Z,26.55
2023-05-07T14:40:26.707Z,26.18
2023-05-07T14:42:54.205Z,26.52
2023-05-07T14:45:22.868Z,25.97
2023-05-07T14:47:50.541Z,26.05
2023-05-07T14:50:18.035Z,25.95
2023-05-07T14:52:45.657Z,25.17
2023-05-07T14:55:14.095Z,25.95
2023-05-07T14:57:41.783Z,26.03
2023-05-07T15:00:11.114Z,26.07
2023-05-07T15:02:38.811Z,25.57
2023-05-07T15:05:07.495Z,25.23
2023-05-07T15:07:35.481Z,24.42
2023-05-07T15:10:02.932Z,24.41
2023-05-07T15:12:30.375Z,24.23
2023-05-07T15:14:57.878Z,23.60
2023-05-07T15:17:25.425Z,23.85
2023-05-07T15:19:54.466Z,23.30
2023-05-07T15:22:22.781Z,23.17
2023-05-07T15:24:50.365Z,23.20
2023-05-07T15:27:18.300Z,23.63
2023-05-07T15:29:46.745Z,23.47
2023-05-07T15:32:14.577Z,23.95
2023-05-07T15:34:42.372Z,23.17
2023-05-07T15:37:09.804Z,22.97
2023-05-07T15:39:37.330Z,22.68
2023-05-07T15:42:04.893Z,22.74
2023-05-07T15:44:35.480Z,22.76
2023-05-07T15:47:03.346Z,22.51
2023-05-07T15:49:31.199Z,22.75
2023-05-07T15:51:58.598Z,22.71
2023-05-07T15:54:26.412Z,22.59
2023-05-07T15:56:53.776Z,22.38
2023-05-07T15:59:21.849Z,22.33
2023-05-07T16:01:50.004Z,22.11
2023-05-07T16:04:17.580Z,22.21
2023-05-07T16:06:47.476Z,22.30
2023-05-07T16:09:16.895Z,21.70
2023-05-07T16:11:44.691Z,21.55
2023-05-07T16:14:12.290Z,22.10
2023-05-07T16:16:41.394Z,22.03
2023-05-07T16:19:08.910Z,21.38
2023-05-07T16:21:36.489Z,20.79
2023-05-07T16:24:06.406Z,21.26
2023-05-07T16:26:33.994Z,21.15
2023-05-07T16:29:04.958Z,20.76
2023-05-07T16:31:32.898Z,20.72
2023-05-07T16:34:01.201Z,20.31
2023-05-07T16:36:29.277Z,20.71
2023-05-07T16:38:56.860Z,20.66
2023-05-07T16:41:24.346Z,20.77
2023-05-07T16:43:51.786Z,20.79
2023-05-07T16:46:19.301Z,20.42
2023-05-07T16:48:46.827Z,20.52
2023-05-07T16:51:14.405Z,20.47
2023-05-07T16:53:41.988Z,20.41
2023-05-07T16:56:09.645Z,20.68
2023-05-07T16:58:37.126Z,20.60
2023-05-07T17:01:04.625Z,20.99
2023-05-07T17:03:32.374Z,20.84
2023-05-07T17:06:00.138Z,20.93
2023-05-07T17:08:27.766Z,20.68
2023-05-07T17:10:55.418Z,20.79
2023-05-07T17:13:22.905Z,20.68
2023-05-07T17:15:50.554Z,20.64
2023-05-07T17:18:18.083Z,20.79
2023-05-07T17:20:45.514Z,21.15
2023-05-07T17:23:13.822Z,21.38
2023-05-07T17:25:45.556Z,20.90
2023-05-07T17:28:13.648Z,21.05
2023-05-07T17:30:42.333Z,20.93
2023-05-07T17:33:20.239Z,20.98
2023-05-07T17:35:49.783Z,21.03
2023-05-07T17:38:17.282Z,20.91
2023-05-07T17:40:44.661Z,20.86
2023-05-07T17:43:12.087Z,20.82
2023-05-07T17:45:39.592Z,20.77
2023-05-07T17:48:07.462Z,20.85
2023-05-07T17:50:35.008Z,20.68
2023-05-07T17:53:02.542Z,20.45
2023-05-07T17:55:33.598Z,20.48
2023-05-07T17:58:04.696Z,20.49
2023-05-07T18:00:32.059Z,20.38
2023-05-07T18:03:00.496Z,20.04
2023-05-07T18:05:28.425Z,20.12
2023-05-07T18:07:56.390Z,19.98
2023-05-07T18:10:24.358Z,19.57
2023-05-07T18:12:51.895Z,20.02
2023-05-07T18:15:19.555Z,20.11
2023-05-07T18:17:47.137Z,19.81
2023-05-07T18:20:15.178Z,19.93
2023-05-07T18:22:42.793Z,20.14
2023-05-07T18:25:10.508Z,20.27
2023-05-07T18:27:38.057Z,20.15
2023-05-07T18:30:06.933Z,20.07
2023-05-07T18:32:34.427Z,20.02
2023-05-07T18:35:01.966Z,20.13
2023-05-07T18:37:31.094Z,20.11
2023-05-07T18:40:01.938Z,19.43
2023-05-07T18:42:30.566Z,19.52
2023-05-07T18:44:59.320Z,19.16
2023-05-07T18:47:27.129Z,19.18
2023-05-07T18:49:54.835Z,19.86
2023-05-07T18:52:22.469Z,19.60
2023-05-07T18:54:49.879Z,19.75
2023-05-07T18:57:17.279Z,19.47
2023-05-07T18:59:44.894Z,19.18
2023-05-07T19:02:14.085Z,19.29
2023-05-07T19:04:41.542Z,19.02
2023-05-07T19:07:09.003Z,19.30
2023-05-07T19:09:36.641Z,19.29
2023-05-07T19:12:07.590Z,19.41
2023-05-07T19:14:34.962Z,19.44
2023-05-07T19:17:02.455Z,19.59
2023-05-07T19:19:30.122Z,19.24
2023-05-07T19:21:58.133Z,19.23
2023-05-07T19:24:25.666Z,19.21
2023-05-07T19:26:53.340Z,18.91
2023-05-07T19:29:20.841Z,19.16
2023-05-07T19:31:48.314Z,19.19
2023-05-07T19:34:16.012Z,19.34
2023-05-07T19:36:43.594Z,19.53
2023-05-07T19:39:11.656Z,19.80
2023-05-07T19:41:39.085Z,19.51
2023-05-07T19:44:06.497Z,19.68
2023-05-07T19:46:33.942Z,19.84
2023-05-07T19:49:01.645Z,19.98
2023-05-07T19:51:32.471Z,19.77
2023-05-07T19:54:01.935Z,20.05
2023-05-07T19:56:29.726Z,19.68
2023-05-07T19:58:57.272Z,19.80
2023-05-07T20:01:25.112Z,19.72
2023-05-07T20:03:52.707Z,19.50
2023-05-07T20:06:20.541Z,19.66
2023-05-07T20:08:47.977Z,19.69
2023-05-07T20:11:15.514Z,19.74
2023-05-07T20:13:42.928Z,19.67
2023-05-07T20:16:10.363Z,19.82
2023-05-07T20:18:37.851Z,19.52
2023-05-07T20:21:05.412Z,19.40
2023-05-07T20:23:33.511Z,19.43
2023-05-07T20:26:01.630Z,19.18
2023-05-07T20:28:29.633Z,19.31
2023-05-07T20:30:57.851Z,19.54
2023-05-07T20:33:26.955Z,19.45
2023-05-07T20:35:54.985Z,19.52
2023-05-07T20:38:22.490Z,19.24
2023-05-07T20:40:49.942Z,19.26
2023-05-07T20:43:17.414Z,19.29
2023-05-07T20:45:44.849Z,19.33
2023-05-07T20:48:12.556Z,19.53
2023-05-07T20:50:40.092Z,19.47
2023-05-07T20:53:07.631Z,19.52
2023-05-07T20:55:35.064Z,19.71
2023-05-07T20:58:02.510Z,19.65
2023-05-07T21:00:30.015Z,19.62
2023-05-07T21:02:57.929Z,19.67
2023-05-07T21:05:25.391Z,19.57
2023-05-07T21:07:52.850Z,19.75
2023-05-07T21:10:20.488Z,19.53
2023-05-07T21:12:48.024Z,19.66
2023-05-07T21:15:15.655Z,19.64
2023-05-07T21:17:43.146Z,19.47
2023-05-07T21:20:11.290Z,19.48
2023-05-07T21:22:38.948Z,19.34
2023-05-07T21:25:06.903Z,19.29
2023-05-07T21:27:34.345Z,19.47
2023-05-07T21:30:04.953Z,19.53
2023-05-07T21:32:34.365Z,19.42
2023-05-07T21:35:01.883Z,19.43
2023-05-07T21:37:30.084Z,19.53
